| time (UTC) | temp F | wind direction | speed MPH | gust MPH | rain 1hr in | rain 24hr in | rain mn in | humidity % | barometer mb |
| 20260504194551 | 81 | 221 | 3.0 | 4.0 | 0.00 | 0.00 | 0.00 | 38 | 977.4 |
| 20260504194053 | 81 | 222 | 3.0 | 8.0 | 0.00 | 0.00 | 0.00 | 38 | 977.4 |
| 20260504193552 | 81 | 192 | 4.0 | 8.0 | 0.00 | 0.00 | 0.00 | 37 | 977.5 |
| 20260504193053 | 81 | 209 | 6.0 | 10.0 | 0.00 | 0.00 | 0.00 | 38 | 977.5 |
| 20260504192551 | 80 | 253 | 6.0 | 10.0 | 0.00 | 0.00 | 0.00 | 39 | 977.6 |
| 20260504192051 | 80 | 225 | 5.0 | 10.0 | 0.00 | 0.00 | 0.00 | 38 | 977.5 |
| 20260504191550 | 80 | 228 | 4.0 | 5.0 | 0.00 | 0.00 | 0.00 | 37 | 977.5 |
| 20260504191050 | 81 | 223 | 4.0 | 8.0 | 0.00 | 0.00 | 0.00 | 38 | 977.6 |
| 20260504190550 | 80 | 223 | 4.0 | 8.0 | 0.00 | 0.00 | 0.00 | 37 | 977.6 |
| 20260504190052 | 80 | 221 | 4.0 | 9.0 | 0.00 | 0.00 | 0.00 | 36 | 977.5 |
| 20260504185551 | 80 | 222 | 5.0 | 10.0 | 0.00 | 0.00 | 0.00 | 34 | 977.5 |
| 20260504185051 | 80 | 218 | 5.0 | 10.0 | 0.00 | 0.00 | 0.00 | 37 | 977.8 |
| 20260504184815 | 80 | 216 | 6.0 | 12.0 | 0.00 | 0.00 | 0.00 | 40 | 977.8 |
| 20260504184051 | 79 | 224 | 8.0 | 13.0 | 0.00 | 0.00 | 0.00 | 40 | 977.8 |
| 20260504183551 | 79 | 211 | 7.0 | 13.0 | 0.00 | 0.00 | 0.00 | 38 | 977.9 |
| 20260504183048 | 79 | 223 | 4.0 | 10.0 | 0.00 | 0.00 | 0.00 | 40 | 977.8 |
| 20260504182809 | 79 | 203 | 3.0 | 6.0 | 0.00 | 0.00 | 0.00 | 39 | 977.8 |
| 20260504182047 | 79 | 213 | 4.0 | 7.0 | 0.00 | 0.00 | 0.00 | 40 | 977.9 |
| 20260504181806 | 78 | 231 | 4.0 | 7.0 | 0.00 | 0.00 | 0.00 | 42 | 977.9 |
| 20260504181047 | 78 | 226 | 4.0 | 7.0 | 0.00 | 0.00 | 0.00 | 40 | 978.0 |
| 20260504180547 | 79 | 229 | 4.0 | 8.0 | 0.00 | 0.00 | 0.00 | 39 | 978.0 |
| 20260504180047 | 78 | 214 | 4.0 | 8.0 | 0.00 | 0.00 | 0.00 | 41 | 978.0 |
| 20260504175548 | 78 | 228 | 4.0 | 14.0 | 0.00 | 0.00 | 0.00 | 43 | 978.0 |
| 20260504175311 | 78 | 214 | 5.0 | 21.0 | 0.00 | 0.00 | 0.00 | 42 | 978.1 |
| 20260504174547 | 78 | 221 | 5.0 | 21.0 | 0.00 | 0.00 | 0.00 | 42 | 978.0 |
| 20260504174049 | 78 | 224 | 5.0 | 9.0 | 0.00 | 0.00 | 0.00 | 41 | 978.1 |
| 20260504173547 | 78 | 220 | 4.0 | 9.0 | 0.00 | 0.00 | 0.00 | 41 | 978.1 |
| 20260504173305 | 78 | 231 | 4.0 | 7.0 | 0.00 | 0.00 | 0.00 | 41 | 978.3 |
| 20260504172542 | 78 | 223 | 4.0 | 8.0 | 0.00 | 0.00 | 0.00 | 44 | 978.3 |
| 20260504172042 | 77 | 223 | 4.0 | 8.0 | 0.00 | 0.00 | 0.00 | 42 | 978.3 |
| 20260504171542 | 77 | 221 | 4.0 | 8.0 | 0.00 | 0.00 | 0.00 | 45 | 978.4 |
| 20260504171042 | 77 | 208 | 4.0 | 8.0 | 0.00 | 0.00 | 0.00 | 45 | 978.5 |
| 20260504170543 | 77 | 226 | 5.0 | 13.0 | 0.00 | 0.00 | 0.00 | 46 | 978.6 |
| 20260504151033 | 69 | 167 | 3.0 | 8.0 | 0.00 | 0.03 | 0.00 | 59 | 980.1 |
| 20260504150532 | 69 | 186 | 4.0 | 9.0 | 0.00 | 0.04 | 0.00 | 60 | 980.1 |
| 20260504141029 | 64 | 186 | 3.0 | 6.0 | 0.00 | 0.05 | 0.00 | 66 | 980.6 |
| 20260504140530 | 64 | 283 | 3.0 | 6.0 | 0.00 | 0.05 | 0.00 | 67 | 980.6 |
| 20260504130739 | 57 | 185 | 2.0 | 5.0 | 0.00 | 0.05 | 0.00 | 77 | 981.4 |
| 20260504110513 | 50 | 0 | 0.0 | 2.0 | 0.00 | 0.05 | 0.00 | 90 | 981.8 |
| 20260504110230 | 49 | 0 | 0.0 | 2.0 | 0.00 | 0.05 | 0.00 | 90 | 981.8 |
| 20260504100508 | 50 | 166 | 1.0 | 6.0 | 0.00 | 0.05 | 0.00 | 86 | 982.2 |
| 20260504100228 | 50 | 175 | 2.0 | 6.0 | 0.00 | 0.05 | 0.00 | 85 | 982.2 |
| 20260504082002 | 53 | 0 | 0.0 | 2.0 | 0.00 | 0.05 | 0.00 | 83 | 982.2 |
| 20260504081503 | 53 | 0 | 1.0 | 4.0 | 0.00 | 0.05 | 0.00 | 83 | 982.2 |
| 20260504081440 | 53 | 200 | 2.0 | 4.0 | 0.00 | 0.05 | 0.00 | 83 | 982.2 |
| 20260504080721 | 54 | 206 | 2.0 | 4.0 | 0.00 | 0.05 | 0.00 | 82 | 982.2 |
| 20260504050447 | 56 | 187 | 1.0 | 5.0 | 0.00 | 0.05 | 0.00 | 74 | 983.6 |
| 20260504045947 | 56 | 324 | 1.0 | 5.0 | 0.00 | 0.05 | 0.05 | 73 | 983.6 |
| 20260504045703 | 56 | 190 | 1.0 | 4.0 | 0.00 | 0.05 | 0.05 | 74 | 983.5 |
| 20260504044944 | 57 | 0 | 1.0 | 4.0 | 0.00 | 0.05 | 0.05 | 74 | 983.6 |
| 20260504044444 | 57 | 0 | 1.0 | 5.0 | 0.00 | 0.05 | 0.05 | 73 | 983.6 |
| 20260504044207 | 57 | 188 | 1.0 | 5.0 | 0.00 | 0.05 | 0.05 | 73 | 983.6 |
| 20260504043444 | 57 | 0 | 1.0 | 4.0 | 0.00 | 0.05 | 0.05 | 72 | 983.5 |
| 20260504043208 | 57 | 0 | 1.0 | 4.0 | 0.00 | 0.05 | 0.05 | 72 | 983.6 |
| 20260504042444 | 57 | 0 | 1.0 | 2.0 | 0.00 | 0.05 | 0.05 | 72 | 983.6 |
| 20260504041943 | 57 | 193 | 1.0 | 3.0 | 0.00 | 0.05 | 0.05 | 72 | 983.6 |
| 20260504041443 | 58 | 0 | 1.0 | 3.0 | 0.00 | 0.05 | 0.05 | 71 | 983.6 |
| 20260504040942 | 58 | 200 | 1.0 | 3.0 | 0.00 | 0.05 | 0.05 | 71 | 983.7 |
| 20260504040440 | 58 | 213 | 1.0 | 3.0 | 0.00 | 0.05 | 0.05 | 71 | 983.7 |
| 20260504035941 | 58 | 0 | 1.0 | 5.0 | 0.00 | 0.05 | 0.05 | 70 | 983.7 |
| 20260504035441 | 58 | 0 | 1.0 | 5.0 | 0.00 | 0.05 | 0.05 | 70 | 983.8 |
| 20260504034937 | 58 | 194 | 1.0 | 4.0 | 0.00 | 0.05 | 0.05 | 69 | 983.8 |
| 20260504034708 | 58 | 192 | 1.0 | 4.0 | 0.00 | 0.05 | 0.05 | 69 | 983.8 |
| 20260504033939 | 58 | 183 | 1.0 | 4.0 | 0.00 | 0.05 | 0.05 | 69 | 983.9 |
| 20260504033438 | 58 | 220 | 1.0 | 3.0 | 0.00 | 0.05 | 0.05 | 69 | 984.0 |
| 20260504032937 | 59 | 0 | 1.0 | 3.0 | 0.00 | 0.05 | 0.05 | 69 | 984.0 |
| 20260504032438 | 59 | 0 | 1.0 | 3.0 | 0.00 | 0.05 | 0.05 | 68 | 984.1 |
| 20260504031938 | 59 | 0 | 0.0 | 2.0 | 0.00 | 0.05 | 0.05 | 68 | 984.1 |
| 20260504031658 | 59 | 186 | 1.0 | 4.0 | 0.00 | 0.05 | 0.05 | 67 | 984.1 |
| 20260504030936 | 60 | 0 | 1.0 | 4.0 | 0.00 | 0.05 | 0.05 | 66 | 984.1 |
| 20260504030433 | 60 | 182 | 1.0 | 4.0 | 0.00 | 0.05 | 0.05 | 65 | 984.1 |
| 20260504025934 | 60 | 175 | 1.0 | 4.0 | 0.00 | 0.05 | 0.05 | 65 | 984.1 |
| 20260504025433 | 60 | 194 | 1.0 | 4.0 | 0.00 | 0.05 | 0.05 | 65 | 984.2 |
| 20260504025151 | 60 | 215 | 1.0 | 4.0 | 0.00 | 0.05 | 0.05 | 65 | 984.1 |
| 20260504024430 | 60 | 0 | 1.0 | 3.0 | 0.00 | 0.05 | 0.05 | 65 | 984.0 |
| 20260504023930 | 60 | 183 | 1.0 | 4.0 | 0.00 | 0.05 | 0.05 | 65 | 984.1 |
| 20260504023430 | 60 | 168 | 2.0 | 4.0 | 0.00 | 0.05 | 0.05 | 64 | 984.1 |
| 20260504022930 | 60 | 186 | 1.0 | 4.0 | 0.00 | 0.05 | 0.05 | 64 | 984.1 |
| 20260504022430 | 60 | 252 | 1.0 | 4.0 | 0.00 | 0.05 | 0.05 | 64 | 984.1 |
| 20260504021931 | 60 | 0 | 1.0 | 6.0 | 0.00 | 0.05 | 0.05 | 63 | 984.0 |
| 20260504021428 | 61 | 275 | 1.0 | 6.0 | 0.00 | 0.05 | 0.05 | 63 | 984.0 |
| 20260504020925 | 61 | 191 | 1.0 | 5.0 | 0.00 | 0.05 | 0.05 | 62 | 984.0 |
| 20260504020425 | 61 | 175 | 2.0 | 6.0 | 0.00 | 0.05 | 0.05 | 62 | 984.0 |
| 20260504020146 | 62 | 168 | 2.0 | 6.0 | 0.00 | 0.05 | 0.05 | 61 | 983.9 |
| 20260504015422 | 62 | 185 | 2.0 | 8.0 | 0.00 | 0.05 | 0.05 | 61 | 983.8 |
| 20260504015140 | 62 | 177 | 2.0 | 8.0 | 0.00 | 0.05 | 0.05 | 60 | 983.8 |
| 20260504014422 | 62 | 182 | 2.0 | 6.0 | 0.00 | 0.05 | 0.05 | 60 | 983.8 |
| 20260504013922 | 62 | 205 | 2.0 | 6.0 | 0.00 | 0.05 | 0.05 | 59 | 983.7 |
| 20260504013424 | 63 | 194 | 2.0 | 6.0 | 0.00 | 0.05 | 0.05 | 59 | 983.8 |
| 20260504012922 | 63 | 157 | 2.0 | 6.0 | 0.00 | 0.05 | 0.05 | 58 | 983.8 |
| 20260504012642 | 63 | 194 | 2.0 | 6.0 | 0.00 | 0.05 | 0.05 | 58 | 983.7 |
| 20260504011920 | 63 | 199 | 2.0 | 6.0 | 0.00 | 0.05 | 0.05 | 58 | 983.7 |
| 20260504011420 | 63 | 216 | 2.0 | 6.0 | 0.00 | 0.05 | 0.05 | 57 | 983.7 |
| 20260504011145 | 63 | 290 | 2.0 | 6.0 | 0.00 | 0.05 | 0.05 | 57 | 983.7 |
| 20260504010420 | 64 | 201 | 2.0 | 6.0 | 0.00 | 0.05 | 0.05 | 57 | 983.7 |
| 20260504005919 | 64 | 230 | 2.0 | 6.0 | 0.00 | 0.05 | 0.05 | 57 | 983.7 |
| 20260504005420 | 64 | 244 | 2.0 | 6.0 | 0.00 | 0.05 | 0.05 | 56 | 983.7 |
| 20260504004920 | 64 | 205 | 2.0 | 6.0 | 0.00 | 0.05 | 0.05 | 55 | 983.6 |
| 20260504004420 | 65 | 279 | 2.0 | 6.0 | 0.00 | 0.05 | 0.05 | 55 | 983.5 |
| 20260504003922 | 65 | 196 | 2.0 | 6.0 | 0.00 | 0.05 | 0.05 | 54 | 983.6 |
| 20260504003644 | 65 | 201 | 2.0 | 6.0 | 0.00 | 0.05 | 0.05 | 54 | 983.6 |
| 20260504002921 | 65 | 177 | 3.0 | 9.0 | 0.00 | 0.05 | 0.05 | 54 | 983.6 |
| 20260504002421 | 66 | 174 | 4.0 | 9.0 | 0.00 | 0.05 | 0.05 | 52 | 983.6 |
| 20260504001918 | 66 | 228 | 4.0 | 9.0 | 0.00 | 0.05 | 0.05 | 52 | 983.6 |
| 20260504001414 | 66 | 251 | 4.0 | 9.0 | 0.00 | 0.05 | 0.05 | 51 | 983.6 |
| 20260504000915 | 66 | 184 | 4.0 | 9.0 | 0.00 | 0.05 | 0.05 | 51 | 983.6 |
| 20260504000412 | 66 | 174 | 4.0 | 9.0 | 0.00 | 0.05 | 0.05 | 51 | 983.7 |
| 20260503235912 | 67 | 213 | 4.0 | 8.0 | 0.00 | 0.05 | 0.05 | 50 | 983.7 |
| 20260503235412 | 67 | 171 | 4.0 | 9.0 | 0.00 | 0.05 | 0.05 | 50 | 983.8 |
| 20260503234912 | 67 | 257 | 4.0 | 10.0 | 0.00 | 0.05 | 0.05 | 51 | 983.8 |
| 20260503234412 | 67 | 222 | 4.0 | 11.0 | 0.00 | 0.05 | 0.05 | 49 | 983.7 |
| 20260503234137 | 67 | 241 | 4.0 | 11.0 | 0.00 | 0.05 | 0.05 | 50 | 983.8 |
| 20260503233413 | 67 | 113 | 4.0 | 11.0 | 0.00 | 0.05 | 0.05 | 49 | 983.7 |
| 20260503232912 | 67 | 38 | 4.0 | 8.0 | 0.00 | 0.05 | 0.05 | 50 | 983.7 |
| 20260503232635 | 67 | 172 | 4.0 | 8.0 | 0.00 | 0.05 | 0.05 | 48 | 983.7 |
| 20260503232355 | 67 | 351 | 4.0 | 10.0 | 0.00 | 0.05 | 0.05 | 48 | 983.8 |
| 20260503231407 | 67 | 162 | 5.0 | 10.0 | 0.00 | 0.05 | 0.05 | 48 | 983.8 |
| 20260503230908 | 67 | 185 | 4.0 | 10.0 | 0.00 | 0.05 | 0.05 | 48 | 983.8 |
| 20260503230626 | 67 | 243 | 4.0 | 10.0 | 0.00 | 0.05 | 0.05 | 48 | 983.8 |
| 20260503225906 | 67 | 208 | 4.0 | 13.0 | 0.00 | 0.05 | 0.05 | 48 | 983.9 |
| 20260503225405 | 67 | 194 | 5.0 | 13.0 | 0.00 | 0.05 | 0.05 | 48 | 983.9 |
| 20260503224904 | 67 | 208 | 5.0 | 12.0 | 0.00 | 0.05 | 0.05 | 47 | 983.7 |
| 20260503224629 | 67 | 190 | 4.0 | 10.0 | 0.00 | 0.05 | 0.05 | 47 | 983.8 |
| 20260503223906 | 67 | 171 | 4.0 | 10.0 | 0.00 | 0.05 | 0.05 | 47 | 983.9 |
| 20260503223405 | 67 | 190 | 4.0 | 11.0 | 0.00 | 0.05 | 0.05 | 48 | 984.1 |
| 20260503222904 | 67 | 262 | 4.0 | 11.0 | 0.00 | 0.05 | 0.05 | 46 | 984.1 |
| 20260503222405 | 67 | 181 | 4.0 | 11.0 | 0.00 | 0.05 | 0.05 | 47 | 984.0 |
| 20260503221903 | 67 | 214 | 5.0 | 13.0 | 0.00 | 0.05 | 0.05 | 46 | 984.2 |
| 20260503221402 | 67 | 209 | 5.0 | 13.0 | 0.00 | 0.05 | 0.05 | 46 | 984.1 |
| 20260503220901 | 67 | 183 | 4.0 | 9.0 | 0.00 | 0.05 | 0.05 | 47 | 984.2 |
| 20260503220628 | 67 | 172 | 4.0 | 8.0 | 0.00 | 0.05 | 0.05 | 47 | 984.3 |
| 20260503215902 | 67 | 208 | 4.0 | 8.0 | 0.00 | 0.05 | 0.05 | 47 | 984.2 |
| 20260503215359 | 67 | 240 | 4.0 | 9.0 | 0.00 | 0.05 | 0.05 | 46 | 984.2 |
| 20260503214900 | 67 | 49 | 4.0 | 10.0 | 0.00 | 0.05 | 0.05 | 47 | 984.2 |
| 20260503214400 | 67 | 1 | 6.0 | 12.0 | 0.00 | 0.05 | 0.05 | 46 | 984.3 |
| 20260503213900 | 67 | 223 | 5.0 | 12.0 | 0.00 | 0.05 | 0.05 | 46 | 984.2 |
| 20260503213401 | 67 | 186 | 5.0 | 12.0 | 0.00 | 0.05 | 0.05 | 46 | 984.4 |
| 20260503212900 | 66 | 192 | 5.0 | 13.0 | 0.00 | 0.05 | 0.05 | 46 | 984.4 |
| 20260503212400 | 66 | 236 | 5.0 | 13.0 | 0.00 | 0.05 | 0.05 | 46 | 984.4 |
| 20260503212116 | 66 | 293 | 5.0 | 11.0 | 0.00 | 0.05 | 0.05 | 46 | 984.4 |
| 20260503211400 | 66 | 168 | 5.0 | 11.0 | 0.00 | 0.05 | 0.05 | 46 | 984.6 |
| 20260503211125 | 66 | 190 | 6.0 | 16.0 | 0.00 | 0.05 | 0.05 | 46 | 984.7 |
| 20260503210400 | 66 | 177 | 6.0 | 16.0 | 0.00 | 0.05 | 0.05 | 46 | 984.8 |
| 20260503205859 | 66 | 184 | 6.0 | 13.0 | 0.00 | 0.05 | 0.05 | 46 | 984.9 |
| 20260503205400 | 65 | 194 | 5.0 | 13.0 | 0.00 | 0.05 | 0.05 | 47 | 985.0 |
| 20260503204900 | 65 | 278 | 6.0 | 12.0 | 0.00 | 0.05 | 0.05 | 46 | 985.1 |
| 20260503204400 | 64 | 260 | 5.0 | 12.0 | 0.00 | 0.05 | 0.05 | 47 | 985.2 |
| 20260503203900 | 64 | 197 | 5.0 | 13.0 | 0.00 | 0.05 | 0.05 | 48 | 985.4 |
| 20260503203358 | 65 | 143 | 5.0 | 13.0 | 0.00 | 0.05 | 0.05 | 47 | 985.6 |
| 20260503202858 | 65 | 181 | 6.0 | 15.0 | 0.00 | 0.05 | 0.05 | 46 | 985.6 |
| 20260503202355 | 66 | 211 | 6.0 | 15.0 | 0.00 | 0.05 | 0.05 | 45 | 985.7 |
| 20260503201855 | 66 | 261 | 6.0 | 19.0 | 0.00 | 0.05 | 0.05 | 45 | 985.8 |
| 20260503201615 | 66 | 202 | 6.0 | 19.0 | 0.00 | 0.05 | 0.05 | 44 | 985.8 |
| 20260503200852 | 66 | 195 | 6.0 | 12.0 | 0.00 | 0.05 | 0.05 | 44 | 985.9 |
| 20260503200353 | 66 | 162 | 6.0 | 13.0 | 0.00 | 0.05 | 0.05 | 43 | 985.9 |
| 20260503195852 | 66 | 16 | 6.0 | 16.0 | 0.00 | 0.05 | 0.05 | 42 | 985.8 |
| 20260503195352 | 65 | 197 | 7.0 | 16.0 | 0.00 | 0.05 | 0.05 | 42 | 985.7 |
| 20260503195115 | 65 | 184 | 7.0 | 13.0 | 0.00 | 0.05 | 0.05 | 43 | 986.0 |